createdAt,value
2023-05-14T00:00:20.639Z,93.15
2023-05-14T00:01:20.544Z,93.15
2023-05-14T00:02:20.576Z,93.35
2023-05-14T00:03:20.588Z,93.25
2023-05-14T00:04:20.541Z,93.25
2023-05-14T00:05:20.496Z,93.15
2023-05-14T00:06:20.489Z,93.15
2023-05-14T00:07:20.465Z,93.39
2023-05-14T00:08:20.453Z,93.39
2023-05-14T00:09:20.428Z,93.80
2023-05-14T00:10:20.520Z,94.11
2023-05-14T00:11:20.424Z,93.90
2023-05-14T00:12:20.403Z,93.80
2023-05-14T00:13:20.390Z,93.60
2023-05-14T00:14:20.374Z,93.70
2023-05-14T00:15:20.367Z,93.60
2023-05-14T00:16:20.452Z,93.49
2023-05-14T00:17:20.325Z,93.49
2023-05-14T00:18:20.324Z,93.44
2023-05-14T00:19:20.304Z,93.33
2023-05-14T00:20:20.319Z,93.44
2023-05-14T00:21:20.303Z,93.64
2023-05-14T00:22:20.270Z,93.44
2023-05-14T00:23:20.251Z,93.33
2023-05-14T00:24:20.247Z,93.54
2023-05-14T00:25:20.289Z,93.64
2023-05-14T00:26:20.231Z,93.95
2023-05-14T00:27:20.223Z,94.15
2023-05-14T00:28:20.196Z,94.15
2023-05-14T00:29:20.194Z,94.36
2023-05-14T00:30:20.292Z,94.67
2023-05-14T00:31:20.261Z,94.77
2023-05-14T00:32:20.218Z,94.98
2023-05-14T00:33:20.144Z,96.00
2023-05-14T00:34:20.130Z,96.41
2023-05-14T00:35:20.098Z,96.20
2023-05-14T00:36:20.099Z,96.20
2023-05-14T00:37:20.077Z,96.00
2023-05-14T00:38:20.068Z,95.90
2023-05-14T00:39:20.072Z,95.79
2023-05-14T00:40:20.069Z,95.49
2023-05-14T00:41:20.021Z,95.90
2023-05-14T00:42:20.030Z,96.31
2023-05-14T00:43:20.022Z,96.41
2023-05-14T00:44:20.006Z,96.20
2023-05-14T00:45:19.976Z,96.10
2023-05-14T00:46:20.007Z,96.10
2023-05-14T00:47:19.947Z,96.20
2023-05-14T00:48:19.953Z,96.10
2023-05-14T00:49:19.938Z,96.62
2023-05-14T00:50:19.911Z,97.03
2023-05-14T00:51:19.896Z,97.33
2023-05-14T00:52:19.885Z,97.33
2023-05-14T00:53:19.892Z,96.82
2023-05-14T00:54:19.858Z,96.10
2023-05-14T00:55:19.849Z,96.04
2023-05-14T00:56:19.877Z,95.74
2023-05-14T00:57:19.838Z,95.64
2023-05-14T00:58:19.821Z,95.64
2023-05-14T00:59:19.794Z,95.94
2023-05-14T01:00:19.804Z,96.25
2023-05-14T01:01:19.800Z,95.94
2023-05-14T01:02:19.849Z,95.57
2023-05-14T01:03:19.805Z,95.78
2023-05-14T01:04:19.745Z,95.98
2023-05-14T01:05:19.724Z,96.40
2023-05-14T01:06:19.704Z,96.60
2023-05-14T01:07:19.702Z,97.53
2023-05-14T01:08:19.683Z,97.12
2023-05-14T01:09:19.670Z,97.02
2023-05-14T01:10:19.658Z,96.81
2023-05-14T01:11:19.664Z,96.81
2023-05-14T01:12:19.639Z,97.12
2023-05-14T01:13:19.610Z,97.47
2023-05-14T01:14:19.607Z,98.25
2023-05-14T01:15:19.599Z,98.66
2023-05-14T01:16:19.654Z,98.25
2023-05-14T01:17:19.566Z,98.08
2023-05-14T01:18:19.603Z,98.08
2023-05-14T01:19:19.550Z,97.67
2023-05-14T01:20:19.533Z,97.78
2023-05-14T01:21:19.524Z,97.88
2023-05-14T01:22:19.504Z,97.78
2023-05-14T01:23:19.506Z,98.39
2023-05-14T01:24:19.551Z,98.29
2023-05-14T01:25:19.467Z,98.80
2023-05-14T01:26:19.472Z,98.70
2023-05-14T01:27:19.437Z,99.01
2023-05-14T01:28:19.446Z,98.96
2023-05-14T01:29:19.412Z,98.85
2023-05-14T01:30:19.413Z,98.96
2023-05-14T01:31:19.389Z,99.16
2023-05-14T01:32:19.399Z,99.47
2023-05-14T01:33:19.369Z,99.16
2023-05-14T01:34:19.355Z,98.85
2023-05-14T01:35:19.345Z,98.54
2023-05-14T01:36:19.320Z,98.54
2023-05-14T01:37:19.306Z,98.65
2023-05-14T01:38:19.289Z,99.05
2023-05-14T01:39:19.314Z,99.05
2023-05-14T01:40:19.286Z,99.10
2023-05-14T01:41:19.244Z,99.98
2023-05-14T01:42:19.238Z,99.99
2023-05-14T01:43:19.370Z,99.99
2023-05-14T01:44:19.238Z,99.99
2023-05-14T01:45:19.218Z,99.99
2023-05-14T01:46:19.230Z,99.99
2023-05-14T01:47:19.166Z,99.99
2023-05-14T01:48:19.168Z,99.99
2023-05-14T01:49:19.158Z,99.99
2023-05-14T01:50:19.147Z,99.99
2023-05-14T01:51:19.116Z,99.99
2023-05-14T01:52:19.102Z,99.99
2023-05-14T01:53:19.109Z,99.99
2023-05-14T01:54:19.110Z,99.99
2023-05-14T01:55:19.069Z,99.99
2023-05-14T01:56:19.062Z,99.99
2023-05-14T01:57:19.043Z,99.99
2023-05-14T01:58:19.050Z,99.99
2023-05-14T01:59:19.010Z,99.99
2023-05-14T02:00:19.004Z,99.99
2023-05-14T02:01:19.033Z,99.99
2023-05-14T02:02:18.988Z,99.99
2023-05-14T02:03:18.977Z,99.99
2023-05-14T02:04:19.031Z,99.99
2023-05-14T02:05:18.953Z,99.99
2023-05-14T02:06:18.926Z,99.99
2023-05-14T02:07:18.925Z,99.99
2023-05-14T02:08:18.913Z,99.99
2023-05-14T02:09:18.867Z,99.99
2023-05-14T02:10:26.009Z,99.99
2023-05-14T02:11:25.874Z,99.99
2023-05-14T02:12:25.860Z,99.99
2023-05-14T02:13:25.838Z,99.99
2023-05-14T02:14:18.820Z,99.99
2023-05-14T02:15:18.810Z,99.99
2023-05-14T02:16:18.811Z,99.99
2023-05-14T02:17:18.792Z,99.99
2023-05-14T02:18:18.767Z,99.99
2023-05-14T02:19:18.765Z,99.99
2023-05-14T02:20:18.756Z,99.99
2023-05-14T02:21:18.750Z,99.99
2023-05-14T02:22:18.731Z,99.99
2023-05-14T02:23:19.511Z,99.99
2023-05-14T02:24:18.692Z,99.99
2023-05-14T02:25:18.682Z,99.99
2023-05-14T02:26:18.682Z,99.99
2023-05-14T02:27:18.650Z,99.99
2023-05-14T02:28:18.636Z,99.99
2023-05-14T02:29:18.619Z,99.99
2023-05-14T02:30:18.615Z,99.99
2023-05-14T02:31:18.637Z,99.99
2023-05-14T02:32:18.637Z,99.99
2023-05-14T02:33:18.772Z,99.99
2023-05-14T02:34:18.567Z,99.99
2023-05-14T02:35:18.557Z,99.99
2023-05-14T02:36:18.557Z,99.99
2023-05-14T02:37:18.833Z,99.99
2023-05-14T02:38:18.539Z,99.99
2023-05-14T02:39:18.491Z,99.99
2023-05-14T02:40:18.670Z,99.99
2023-05-14T02:41:18.477Z,99.99
2023-05-14T02:42:18.510Z,99.99
2023-05-14T02:43:18.436Z,99.99
2023-05-14T02:44:18.433Z,99.99
2023-05-14T02:45:18.427Z,99.99
2023-05-14T02:46:18.443Z,99.99
2023-05-14T02:47:18.396Z,99.99
2023-05-14T02:48:18.380Z,99.99
2023-05-14T02:49:18.376Z,99.99
2023-05-14T02:50:18.400Z,99.99
2023-05-14T02:51:18.338Z,99.99
2023-05-14T02:52:18.326Z,99.99
2023-05-14T02:53:18.405Z,99.99
2023-05-14T02:54:18.322Z,99.99
2023-05-14T02:55:18.289Z,99.99
2023-05-14T02:56:18.299Z,99.99
2023-05-14T02:57:18.272Z,99.99
2023-05-14T02:58:18.256Z,99.99
2023-05-14T02:59:18.253Z,99.99
2023-05-14T03:00:18.241Z,99.99
2023-05-14T03:01:18.230Z,99.99
2023-05-14T03:02:18.239Z,99.99
2023-05-14T03:03:18.256Z,99.99
2023-05-14T03:04:18.218Z,99.99
2023-05-14T03:05:18.165Z,99.99
2023-05-14T03:06:18.156Z,99.99
2023-05-14T03:07:18.135Z,99.99
2023-05-14T03:08:18.188Z,99.99
2023-05-14T03:09:18.116Z,99.99
2023-05-14T03:10:18.105Z,99.99
2023-05-14T03:11:18.094Z,99.99
2023-05-14T03:12:18.090Z,99.99
2023-05-14T03:13:18.160Z,99.99
2023-05-14T03:14:18.084Z,99.99
2023-05-14T03:15:18.031Z,99.99
2023-05-14T03:16:18.098Z,99.99
2023-05-14T03:17:18.021Z,99.99
2023-05-14T03:18:18.004Z,99.99
2023-05-14T03:19:17.985Z,99.99
2023-05-14T03:20:17.973Z,99.99
2023-05-14T03:21:17.962Z,99.99
2023-05-14T03:22:17.955Z,99.99
2023-05-14T03:23:17.923Z,99.99
2023-05-14T03:24:17.921Z,99.99
2023-05-14T03:25:17.912Z,99.99
2023-05-14T03:26:17.901Z,99.99
2023-05-14T03:27:17.899Z,99.99
2023-05-14T03:28:17.863Z,99.99
2023-05-14T03:29:17.850Z,99.99
2023-05-14T03:30:17.850Z,99.99
2023-05-14T03:31:17.905Z,99.99
2023-05-14T03:32:17.840Z,99.99
2023-05-14T03:33:17.889Z,99.99
2023-05-14T03:34:17.797Z,99.99
2023-05-14T03:35:17.789Z,99.99
2023-05-14T03:36:17.775Z,99.99
2023-05-14T03:37:17.752Z,99.99
2023-05-14T03:38:17.733Z,99.99
2023-05-14T03:39:17.728Z,99.99
2023-05-14T03:40:17.711Z,99.99
2023-05-14T03:41:17.744Z,99.99
2023-05-14T03:42:17.678Z,99.99
2023-05-14T03:43:17.663Z,99.99
2023-05-14T03:44:17.645Z,99.99
2023-05-14T03:45:17.660Z,99.99
2023-05-14T03:46:17.635Z,99.99
2023-05-14T03:47:17.621Z,99.99
2023-05-14T03:48:17.687Z,99.99
2023-05-14T03:49:17.599Z,99.99
2023-05-14T03:50:17.591Z,99.99
2023-05-14T03:51:17.558Z,99.99
2023-05-14T03:52:17.552Z,99.99
2023-05-14T03:53:17.553Z,99.99
2023-05-14T03:54:17.527Z,99.99
2023-05-14T03:55:17.531Z,99.99
2023-05-14T03:56:17.517Z,99.99
2023-05-14T03:57:17.494Z,99.99
2023-05-14T03:58:17.504Z,99.99
2023-05-14T03:59:17.488Z,99.99
2023-05-14T04:00:17.463Z,99.99
2023-05-14T04:01:17.438Z,99.99
2023-05-14T04:02:17.453Z,99.99
2023-05-14T04:03:17.501Z,99.99
2023-05-14T04:04:17.448Z,99.99
2023-05-14T04:05:17.387Z,99.99
2023-05-14T04:06:17.365Z,99.99
2023-05-14T04:07:17.371Z,99.99
2023-05-14T04:08:17.337Z,99.99
2023-05-14T04:09:17.343Z,99.99
2023-05-14T04:10:17.303Z,99.99
2023-05-14T04:11:17.301Z,99.99
2023-05-14T04:12:17.288Z,99.99
2023-05-14T04:13:17.313Z,99.99
2023-05-14T04:14:17.266Z,99.99
2023-05-14T04:15:17.243Z,99.99
2023-05-14T04:16:17.263Z,99.99
2023-05-14T04:17:17.219Z,99.99
2023-05-14T04:18:17.223Z,99.99
2023-05-14T04:19:17.322Z,99.99
2023-05-14T04:20:17.188Z,99.99
2023-05-14T04:21:17.176Z,99.99
2023-05-14T04:22:17.180Z,99.99
2023-05-14T04:23:17.153Z,99.99
2023-05-14T04:24:17.136Z,99.99
2023-05-14T04:25:17.116Z,99.99
2023-05-14T04:26:17.160Z,99.99
2023-05-14T04:27:17.115Z,99.99
2023-05-14T04:28:17.104Z,99.99
2023-05-14T04:29:17.076Z,99.99
2023-05-14T04:30:17.041Z,99.99
2023-05-14T04:31:17.069Z,99.99
2023-05-14T04:32:17.042Z,99.99
2023-05-14T04:33:17.011Z,99.99
2023-05-14T04:34:17.002Z,99.99
2023-05-14T04:35:16.990Z,99.99
2023-05-14T04:36:16.965Z,99.99
2023-05-14T04:37:16.976Z,99.99
2023-05-14T04:38:16.942Z,99.99
2023-05-14T04:39:16.933Z,99.99
2023-05-14T04:40:16.921Z,99.99
2023-05-14T04:41:16.918Z,99.99
2023-05-14T04:42:16.911Z,99.99
2023-05-14T04:43:16.878Z,99.99
2023-05-14T04:44:16.867Z,99.99
2023-05-14T04:45:16.849Z,99.99
2023-05-14T04:46:16.900Z,99.99
2023-05-14T04:47:16.878Z,99.99
2023-05-14T04:48:16.826Z,99.99
2023-05-14T04:49:16.804Z,99.99
2023-05-14T04:50:16.825Z,99.99
2023-05-14T04:51:16.813Z,99.99
2023-05-14T04:52:16.758Z,99.99
2023-05-14T04:53:17.333Z,99.99
2023-05-14T04:54:16.816Z,99.99
2023-05-14T04:55:16.760Z,99.99
2023-05-14T04:56:16.754Z,99.99
2023-05-14T04:57:16.710Z,99.99
2023-05-14T04:58:16.690Z,99.99
2023-05-14T04:59:16.690Z,99.99
2023-05-14T05:00:16.675Z,99.35
2023-05-14T05:01:16.685Z,98.94
2023-05-14T05:02:16.633Z,98.18
2023-05-14T05:03:16.682Z,97.21
2023-05-14T05:04:16.705Z,96.45
2023-05-14T05:05:16.626Z,95.53
2023-05-14T05:06:16.583Z,94.87
2023-05-14T05:07:16.571Z,94.56
2023-05-14T05:08:16.558Z,94.46
2023-05-14T05:09:16.565Z,94.26
2023-05-14T05:10:16.546Z,94.56
2023-05-14T05:11:16.522Z,94.97
2023-05-14T05:12:16.511Z,94.77
2023-05-14T05:13:16.502Z,94.46
2023-05-14T05:14:16.500Z,94.01
2023-05-14T05:15:16.470Z,92.84
2023-05-14T05:16:16.516Z,92.02
2023-05-14T05:17:16.447Z,92.47
2023-05-14T05:18:16.426Z,92.37
2023-05-14T05:19:16.495Z,92.07
2023-05-14T05:20:16.430Z,92.02
2023-05-14T05:21:16.397Z,91.61
2023-05-14T05:22:16.372Z,91.16
2023-05-14T05:23:16.376Z,90.86
2023-05-14T05:24:16.366Z,91.06
2023-05-14T05:25:16.346Z,91.33
2023-05-14T05:26:16.322Z,90.71
2023-05-14T05:27:16.307Z,90.16
2023-05-14T05:28:16.296Z,89.34
2023-05-14T05:29:16.295Z,89.14
2023-05-14T05:30:16.275Z,90.06
2023-05-14T05:31:17.669Z,90.06
2023-05-14T05:32:16.235Z,90.22
2023-05-14T05:33:16.245Z,89.71
2023-05-14T05:34:16.211Z,89.20
2023-05-14T05:35:16.209Z,89.26
2023-05-14T05:36:16.198Z,89.06
2023-05-14T05:37:16.197Z,88.96
2023-05-14T05:38:16.179Z,89.12
2023-05-14T05:39:16.154Z,88.10
2023-05-14T05:40:16.131Z,87.49
2023-05-14T05:41:16.127Z,87.59
2023-05-14T05:42:16.135Z,87.69
2023-05-14T05:43:16.109Z,87.29
2023-05-14T05:44:16.093Z,86.77
2023-05-14T05:45:16.069Z,87.59
2023-05-14T05:46:16.078Z,87.29
2023-05-14T05:47:16.062Z,87.38
2023-05-14T05:48:16.051Z,87.79
2023-05-14T05:49:16.015Z,87.79
2023-05-14T05:50:16.022Z,87.69
2023-05-14T05:51:16.034Z,87.90
2023-05-14T05:52:15.992Z,87.90
2023-05-14T05:53:15.971Z,88.71
2023-05-14T05:54:15.951Z,89.67
2023-05-14T05:55:15.942Z,89.47
2023-05-14T05:56:15.940Z,89.26
2023-05-14T05:57:15.930Z,87.63
2023-05-14T05:58:15.924Z,87.84
2023-05-14T05:59:15.897Z,88.14
2023-05-14T06:00:15.870Z,88.45
2023-05-14T06:01:15.877Z,89.26
2023-05-14T06:02:15.872Z,89.67
2023-05-14T06:03:15.891Z,89.22
2023-05-14T06:04:15.821Z,89.01
2023-05-14T06:05:15.906Z,89.01
2023-05-14T06:06:15.819Z,89.42
2023-05-14T06:07:15.781Z,89.07
2023-05-14T06:08:15.784Z,88.87
2023-05-14T06:09:15.758Z,88.26
2023-05-14T06:10:15.784Z,87.20
2023-05-14T06:11:15.731Z,86.69
2023-05-14T06:12:15.722Z,86.80
2023-05-14T06:13:15.711Z,87.47
2023-05-14T06:14:15.692Z,88.34
2023-05-14T06:15:15.697Z,88.10
2023-05-14T06:16:15.700Z,85.96
2023-05-14T06:17:15.658Z,84.74
2023-05-14T06:18:15.641Z,85.05
2023-05-14T06:19:15.747Z,84.23
2023-05-14T06:20:15.623Z,84.84
2023-05-14T06:21:15.605Z,85.11
2023-05-14T06:22:15.588Z,83.08
2023-05-14T06:23:15.578Z,84.40
2023-05-14T06:24:15.595Z,83.59
2023-05-14T06:25:15.556Z,83.18
2023-05-14T06:26:15.535Z,83.08
2023-05-14T06:27:15.548Z,84.09
2023-05-14T06:28:15.514Z,84.20
2023-05-14T06:29:15.508Z,82.57
2023-05-14T06:30:15.502Z,82.98
2023-05-14T06:31:15.479Z,82.94
2023-05-14T06:32:15.782Z,81.45
2023-05-14T06:33:15.453Z,82.06
2023-05-14T06:34:15.446Z,81.96
2023-05-14T06:35:15.414Z,82.17
2023-05-14T06:36:15.407Z,81.79
2023-05-14T06:37:15.405Z,82.40
2023-05-14T06:38:15.401Z,82.81
2023-05-14T06:39:15.386Z,82.81
2023-05-14T06:40:15.346Z,82.87
2023-05-14T06:41:15.334Z,83.69
2023-05-14T06:42:15.317Z,84.09
2023-05-14T06:43:15.325Z,83.59
2023-05-14T06:44:15.304Z,83.38
2023-05-14T06:45:15.302Z,84.30
2023-05-14T06:46:15.287Z,85.01
2023-05-14T06:47:15.289Z,85.27
2023-05-14T06:48:15.312Z,83.24
2023-05-14T06:49:15.335Z,83.00
2023-05-14T06:50:15.220Z,83.91
2023-05-14T06:51:15.220Z,83.40
2023-05-14T06:52:15.202Z,83.03
2023-05-14T06:53:15.323Z,81.97
2023-05-14T06:54:15.165Z,81.02
2023-05-14T06:55:15.168Z,81.09
2023-05-14T06:56:15.148Z,80.54
2023-05-14T06:57:15.147Z,80.60
2023-05-14T06:58:15.113Z,78.95
2023-05-14T06:59:15.117Z,78.14
2023-05-14T07:00:15.087Z,77.43
2023-05-14T07:01:15.117Z,76.93
2023-05-14T07:02:15.077Z,77.20
2023-05-14T07:03:15.082Z,78.25
2023-05-14T07:04:15.070Z,79.97
2023-05-14T07:05:15.027Z,79.71
2023-05-14T07:06:15.017Z,79.97
2023-05-14T07:07:14.997Z,81.35
2023-05-14T07:08:14.980Z,79.59
2023-05-14T07:09:14.976Z,77.73
2023-05-14T07:10:14.954Z,77.77
2023-05-14T07:11:14.964Z,77.53
2023-05-14T07:12:14.926Z,76.72
2023-05-14T07:13:14.929Z,77.33
2023-05-14T07:14:14.902Z,77.60
2023-05-14T07:15:14.907Z,77.29
2023-05-14T07:16:14.888Z,76.95
2023-05-14T07:17:14.962Z,76.45
2023-05-14T07:18:14.886Z,77.12
2023-05-14T07:19:14.860Z,73.99
2023-05-14T07:20:14.847Z,75.81
2023-05-14T07:21:14.814Z,74.26
2023-05-14T07:22:14.805Z,75.40
2023-05-14T07:23:14.788Z,74.90
2023-05-14T07:24:14.771Z,76.01
2023-05-14T07:25:14.778Z,72.14
2023-05-14T07:26:14.755Z,71.33
2023-05-14T07:27:14.730Z,71.84
2023-05-14T07:28:14.770Z,72.14
2023-05-14T07:29:14.737Z,74.16
2023-05-14T07:30:14.712Z,73.92
2023-05-14T07:31:14.744Z,74.02
2023-05-14T07:32:15.726Z,75.50
2023-05-14T07:33:14.649Z,74.19
2023-05-14T07:34:14.649Z,71.73
2023-05-14T07:35:14.625Z,71.03
2023-05-14T07:36:14.618Z,71.44
2023-05-14T07:37:14.600Z,72.74
2023-05-14T07:38:14.596Z,72.34
2023-05-14T07:39:14.593Z,69.12
2023-05-14T07:40:14.574Z,70.62
2023-05-14T07:41:14.567Z,71.80
2023-05-14T07:42:24.590Z,70.22
2023-05-14T07:43:15.545Z,70.32
2023-05-14T07:44:14.523Z,69.21
2023-05-14T07:45:14.495Z,68.41
2023-05-14T07:46:14.486Z,68.24
2023-05-14T07:47:14.520Z,70.26
2023-05-14T07:48:14.575Z,69.42
2023-05-14T07:49:14.441Z,70.12
2023-05-14T07:50:14.435Z,71.44
2023-05-14T07:51:14.412Z,70.90
2023-05-14T07:52:14.401Z,71.10
2023-05-14T07:53:14.409Z,70.50
2023-05-14T07:54:14.377Z,72.11
2023-05-14T07:55:14.353Z,70.39
2023-05-14T07:56:14.349Z,69.99
2023-05-14T07:57:14.347Z,70.12
2023-05-14T07:58:14.330Z,71.33
2023-05-14T07:59:14.310Z,72.81
2023-05-14T08:00:14.303Z,71.20
2023-05-14T08:01:14.289Z,71.47
2023-05-14T08:02:14.345Z,69.89
2023-05-14T08:03:14.381Z,69.92
2023-05-14T08:04:14.298Z,72.54
2023-05-14T08:05:14.248Z,72.64
2023-05-14T08:06:14.218Z,71.50
2023-05-14T08:07:14.218Z,71.40
2023-05-14T08:08:14.203Z,71.50
2023-05-14T08:09:14.182Z,71.60
2023-05-14T08:10:14.168Z,70.76
2023-05-14T08:11:14.179Z,71.47
2023-05-14T08:12:14.167Z,71.56
2023-05-14T08:13:14.144Z,70.76
2023-05-14T08:14:14.123Z,71.16
2023-05-14T08:15:14.100Z,68.41
2023-05-14T08:16:14.106Z,68.51
2023-05-14T08:17:14.166Z,69.12
2023-05-14T08:18:14.068Z,68.82
2023-05-14T08:19:14.275Z,69.18
2023-05-14T08:20:14.055Z,66.27
2023-05-14T08:21:14.033Z,63.56
2023-05-14T08:22:14.012Z,63.85
2023-05-14T08:23:14.113Z,65.77
2023-05-14T08:24:13.979Z,62.45
2023-05-14T08:25:13.990Z,62.05
2023-05-14T08:26:13.990Z,62.65
2023-05-14T08:27:13.940Z,63.79
2023-05-14T08:28:13.929Z,64.39
2023-05-14T08:29:20.933Z,64.09
2023-05-14T08:30:20.974Z,62.48
2023-05-14T08:31:20.934Z,62.38
2023-05-14T08:32:22.718Z,63.08
2023-05-14T08:33:14.863Z,64.39
2023-05-14T08:34:13.862Z,64.06
2023-05-14T08:35:13.856Z,63.76
2023-05-14T08:36:13.836Z,65.06
2023-05-14T08:37:13.811Z,63.12
2023-05-14T08:38:13.814Z,63.42
2023-05-14T08:39:13.799Z,63.42
2023-05-14T08:40:13.797Z,61.11
2023-05-14T08:41:13.764Z,61.21
2023-05-14T08:42:13.827Z,60.31
2023-05-14T08:43:13.738Z,61.01
2023-05-14T08:44:13.738Z,64.23
2023-05-14T08:45:13.722Z,61.71
2023-05-14T08:46:13.704Z,63.19
2023-05-14T08:47:13.685Z,63.49
2023-05-14T08:48:13.719Z,63.29
2023-05-14T08:49:13.749Z,63.49
2023-05-14T08:50:13.641Z,62.36
2023-05-14T08:51:13.628Z,61.86
2023-05-14T08:52:13.644Z,62.26
2023-05-14T08:53:13.619Z,62.86
2023-05-14T08:54:13.608Z,62.83
2023-05-14T08:55:13.576Z,62.23
2023-05-14T08:56:13.571Z,60.52
2023-05-14T08:57:13.553Z,59.79
2023-05-14T08:58:13.560Z,62.70
2023-05-14T08:59:13.523Z,61.77
2023-05-14T09:00:13.554Z,58.86
2023-05-14T09:01:13.504Z,62.44
2023-05-14T09:02:13.634Z,61.74
2023-05-14T09:03:13.559Z,58.33
2023-05-14T09:04:13.491Z,58.83
2023-05-14T09:05:13.499Z,58.06
2023-05-14T09:06:13.458Z,57.46
2023-05-14T09:07:13.433Z,56.26
2023-05-14T09:08:13.417Z,57.46
2023-05-14T09:09:13.395Z,60.77
2023-05-14T09:10:13.399Z,60.53
2023-05-14T09:11:13.369Z,60.24
2023-05-14T09:12:13.374Z,59.91
2023-05-14T09:13:13.343Z,57.00
2023-05-14T09:14:13.333Z,60.61
2023-05-14T09:15:13.311Z,61.48
2023-05-14T09:16:13.370Z,61.18
2023-05-14T09:17:13.309Z,59.88
2023-05-14T09:18:13.313Z,59.78
2023-05-14T09:19:13.321Z,59.85
2023-05-14T09:20:13.262Z,59.15
2023-05-14T09:21:13.244Z,57.65
2023-05-14T09:22:13.246Z,56.95
2023-05-14T09:23:13.213Z,58.07
2023-05-14T09:24:13.211Z,57.17
2023-05-14T09:25:13.240Z,58.28
2023-05-14T09:26:13.192Z,58.55
2023-05-14T09:27:13.162Z,58.75
2023-05-14T09:28:13.161Z,56.15
2023-05-14T09:29:13.136Z,59.35
2023-05-14T09:30:13.142Z,58.58
2023-05-14T09:31:13.158Z,56.98
2023-05-14T09:32:13.108Z,59.15
2023-05-14T09:33:13.083Z,56.35
2023-05-14T09:34:13.066Z,54.74
2023-05-14T09:35:13.079Z,55.22
2023-05-14T09:36:13.068Z,56.72
2023-05-14T09:37:13.046Z,56.72
2023-05-14T09:38:13.045Z,56.32
2023-05-14T09:39:13.008Z,54.42
2023-05-14T09:40:13.013Z,57.19
2023-05-14T09:41:13.003Z,55.87
2023-05-14T09:42:12.972Z,54.64
2023-05-14T09:43:13.002Z,56.71
2023-05-14T09:44:12.961Z,57.81
2023-05-14T09:45:12.935Z,54.59
2023-05-14T09:46:12.920Z,55.96
2023-05-14T09:47:12.953Z,54.29
2023-05-14T09:48:12.970Z,53.29
2023-05-14T09:49:12.902Z,52.49
2023-05-14T09:50:13.134Z,52.25
2023-05-14T09:51:12.862Z,55.29
2023-05-14T09:52:12.846Z,55.77
2023-05-14T09:53:12.837Z,53.64
2023-05-14T09:54:12.834Z,55.09
2023-05-14T09:55:12.840Z,52.25
2023-05-14T09:56:12.791Z,54.04
2023-05-14T09:57:12.786Z,53.41
2023-05-14T09:58:12.789Z,50.43
2023-05-14T09:59:12.786Z,50.00
2023-05-14T10:00:12.810Z,50.87
2023-05-14T10:01:12.776Z,51.37
2023-05-14T10:02:12.730Z,53.24
2023-05-14T10:03:12.738Z,56.30
2023-05-14T10:04:12.793Z,52.09
2023-05-14T10:05:12.671Z,51.00
2023-05-14T10:06:12.674Z,47.13
2023-05-14T10:07:12.657Z,52.09
2023-05-14T10:08:12.681Z,53.81
2023-05-14T10:09:12.681Z,49.26
2023-05-14T10:10:12.608Z,51.15
2023-05-14T10:11:12.611Z,52.37
2023-05-14T10:12:12.593Z,49.95
2023-05-14T10:13:12.602Z,47.39
2023-05-14T10:14:12.557Z,46.79
2023-05-14T10:15:12.531Z,47.99
2023-05-14T10:16:12.530Z,49.06
2023-05-14T10:17:12.672Z,48.83
2023-05-14T10:18:12.586Z,51.89
2023-05-14T10:19:12.553Z,47.13
2023-05-14T10:20:12.482Z,47.80
2023-05-14T10:21:12.473Z,52.26
2023-05-14T10:22:12.487Z,48.19
2023-05-14T10:23:12.457Z,49.86
2023-05-14T10:24:12.432Z,48.39
2023-05-14T10:25:12.421Z,47.72
2023-05-14T10:26:12.398Z,46.65
2023-05-14T10:27:12.389Z,48.61
2023-05-14T10:28:12.372Z,48.81
2023-05-14T10:29:12.356Z,47.92
2023-05-14T10:30:12.353Z,49.13
2023-05-14T10:31:12.370Z,49.46
2023-05-14T10:32:12.342Z,48.58
2023-05-14T10:33:12.426Z,48.63
2023-05-14T10:34:12.302Z,48.35
2023-05-14T10:35:12.283Z,47.36
2023-05-14T10:36:12.291Z,47.45
2023-05-14T10:37:12.285Z,47.63
2023-05-14T10:38:12.241Z,51.22
2023-05-14T10:39:12.231Z,47.31
2023-05-14T10:40:12.230Z,43.37
2023-05-14T10:41:12.214Z,43.79
2023-05-14T10:42:12.200Z,47.75
2023-05-14T10:43:12.218Z,49.25
2023-05-14T10:44:12.169Z,44.96
2023-05-14T10:45:12.173Z,43.65
2023-05-14T10:46:12.200Z,44.45
2023-05-14T10:47:12.130Z,43.25
2023-05-14T10:48:12.211Z,45.32
2023-05-14T10:49:12.106Z,44.12
2023-05-14T10:50:12.104Z,45.92
2023-05-14T10:51:12.177Z,41.25
2023-05-14T10:52:12.075Z,40.86
2023-05-14T10:53:12.059Z,41.06
2023-05-14T10:54:12.052Z,42.55
2023-05-14T10:55:12.036Z,41.85
2023-05-14T10:56:12.026Z,40.18
2023-05-14T10:57:12.101Z,41.97
2023-05-14T10:58:11.984Z,43.17
2023-05-14T10:59:11.984Z,41.97
2023-05-14T11:00:11.975Z,42.55
2023-05-14T11:01:11.964Z,44.37
2023-05-14T11:02:11.986Z,42.75
2023-05-14T11:03:11.975Z,41.46
2023-05-14T11:04:12.022Z,40.66
2023-05-14T11:05:11.886Z,42.05
2023-05-14T11:06:11.894Z,43.37
2023-05-14T11:07:11.866Z,41.17
2023-05-14T11:08:11.894Z,42.57
2023-05-14T11:09:11.854Z,44.15
2023-05-14T11:10:11.836Z,41.88
2023-05-14T11:11:11.825Z,41.28
2023-05-14T11:12:11.805Z,42.10
2023-05-14T11:13:11.811Z,44.29
2023-05-14T11:14:11.873Z,49.25
2023-05-14T11:15:11.801Z,44.37
2023-05-14T11:16:22.549Z,43.45
2023-05-14T11:17:12.802Z,44.92
2023-05-14T11:18:11.817Z,43.03
2023-05-14T11:19:11.785Z,42.91
2023-05-14T11:20:11.784Z,41.91
2023-05-14T11:21:11.711Z,43.82
2023-05-14T11:22:11.671Z,44.42
2023-05-14T11:23:11.679Z,43.93
2023-05-14T11:24:11.723Z,44.32
2023-05-14T11:25:11.692Z,43.80
2023-05-14T11:26:11.708Z,48.94
2023-05-14T11:27:11.617Z,44.20
2023-05-14T11:28:11.609Z,44.10
2023-05-14T11:29:11.589Z,45.92
2023-05-14T11:30:11.579Z,46.20
2023-05-14T11:31:11.677Z,46.97
2023-05-14T11:32:11.593Z,43.49
2023-05-14T11:33:11.599Z,46.45
2023-05-14T11:34:11.523Z,43.94
2023-05-14T11:35:11.531Z,42.35
2023-05-14T11:36:11.544Z,42.75
2023-05-14T11:37:11.494Z,42.49
2023-05-14T11:38:11.564Z,44.58
2023-05-14T11:39:11.460Z,44.10
2023-05-14T11:40:11.478Z,43.11
2023-05-14T11:41:11.496Z,42.25
2023-05-14T11:42:11.600Z,44.09
2023-05-14T11:43:11.495Z,45.68
2023-05-14T11:44:11.399Z,50.17
2023-05-14T11:45:11.390Z,48.46
2023-05-14T11:46:11.467Z,43.27
2023-05-14T11:47:11.426Z,43.67
2023-05-14T11:48:11.443Z,44.46
2023-05-14T11:49:11.542Z,45.09
2023-05-14T11:50:11.332Z,45.29
2023-05-14T11:51:11.328Z,44.59
2023-05-14T11:52:11.282Z,45.51
2023-05-14T11:53:11.322Z,46.50
2023-05-14T11:54:11.257Z,46.83
2023-05-14T11:55:11.276Z,46.53
2023-05-14T11:56:11.338Z,46.15
2023-05-14T11:57:11.223Z,46.75
2023-05-14T11:58:11.202Z,48.75
2023-05-14T11:59:11.207Z,49.65
2023-05-14T12:00:11.213Z,48.94
2023-05-14T12:01:11.185Z,49.05
2023-05-14T12:02:11.191Z,47.55
2023-05-14T12:03:11.239Z,48.85
2023-05-14T12:04:11.181Z,48.97
2023-05-14T12:05:11.127Z,47.97
2023-05-14T12:06:11.098Z,47.47
2023-05-14T12:07:11.175Z,48.29
2023-05-14T12:08:11.097Z,48.69
2023-05-14T12:09:11.101Z,48.61
2023-05-14T12:10:11.070Z,50.12
2023-05-14T12:11:11.123Z,49.72
2023-05-14T12:12:11.068Z,50.62
2023-05-14T12:13:11.042Z,49.52
2023-05-14T12:14:11.003Z,49.04
2023-05-14T12:15:10.986Z,49.84
2023-05-14T12:16:11.037Z,51.04
2023-05-14T12:17:10.956Z,50.44
2023-05-14T12:18:23.038Z,50.46
2023-05-14T12:19:12.012Z,52.24
2023-05-14T12:20:10.920Z,52.04
2023-05-14T12:21:10.911Z,50.87
2023-05-14T12:22:10.890Z,51.57
2023-05-14T12:23:10.890Z,54.24
2023-05-14T12:24:10.900Z,51.04
2023-05-14T12:25:10.849Z,52.04
2023-05-14T12:26:10.841Z,51.94
2023-05-14T12:27:10.832Z,49.64
2023-05-14T12:28:10.855Z,50.14
2023-05-14T12:29:10.814Z,50.94
2023-05-14T12:30:20.739Z,49.94
2023-05-14T12:31:11.791Z,51.04
2023-05-14T12:32:10.757Z,50.74
2023-05-14T12:33:10.822Z,52.14
2023-05-14T12:34:10.733Z,50.54
2023-05-14T12:35:10.726Z,51.25
2023-05-14T12:36:21.395Z,50.54
2023-05-14T12:37:11.716Z,50.84
2023-05-14T12:38:10.752Z,49.54
2023-05-14T12:39:10.677Z,50.64
2023-05-14T12:40:10.681Z,51.44
2023-05-14T12:41:10.645Z,50.24
2023-05-14T12:42:10.645Z,50.02
2023-05-14T12:43:10.635Z,49.11
2023-05-14T12:44:10.598Z,46.92
2023-05-14T12:45:10.610Z,48.92
2023-05-14T12:46:10.579Z,47.89
2023-05-14T12:47:10.627Z,50.59
2023-05-14T12:48:10.641Z,47.99
2023-05-14T12:49:10.551Z,49.99
2023-05-14T12:50:10.529Z,49.67
2023-05-14T12:51:10.587Z,47.27
2023-05-14T12:53:10.554Z,50.65